Brazoria County Airport
KLBX : now visible

Airfield :











YOU CAN JOIN US ON...

 
LOGIN :

Register | Disclaimer

   EN    FR    IT 

 









Legend :    VFR   Marginal VFR   IFR   Intensive IFR   Very Intensive IFR
Visi :
Ceiling :
>= 8 km
>= 3000ft
5 to 8 km
1000 to 3000 ft
1500m to 5 km
500 to 1000 ft
800 to 1500m
200 to 500 ft
< 800m
< 200 ft
Symbols :   Thunderstorms  Fog  Heavy snow  Heavy precipitations  Wind > 20 kt






- Airport Elevation : 25 ft


KLBX - Brazoria County

CURRENT METAR :
  • 031153Z AUTO 14003KT 10SM -RA SCT028 BKN045 BKN075 24/23 A2995 RMK AO2 RAB18E29B49 SLP142 P0000 60007 70040 T02440233 10261 20244 53004

EXPIRED METARs :
  • 031134Z AUTO 00000KT 10SM FEW025 BKN031 BKN042 24/23 A2995 RMK AO2 RAB18E29 P0000 T02440233
  • 031113Z AUTO 00000KT 10SM VCTS SCT032 BKN046 OVC100 24/23 A2995 RMK AO2 LTG DSNT S T02440228
  • 031053Z AUTO 36004KT 10SM SCT049 BKN065 OVC110 24/23 A2994 RMK AO2 LTG DSNT SE AND S RAE02 SLP137 P0000 T02440228
  • 030953Z AUTO 22005KT 10SM +RA FEW040 BKN055 OVC075 24/23 A2993 RMK AO2 LTG DSNT SW RAB06 SLP135 P0007 T02440228

TAF KLBX
Valid from the 03 at 12:00 until the 04 at 12:00 UTC


031126Z 0312/0412 VRB05KT P6SM -RA VCTS SCT030CB BKN050 OVC100
TEMPO 0312/0314 VRB20KT 2SM TSRA BKN028CB
FM031600 27006KT P6SM VCTS SCT025CB BKN035
FM040100 VRB05KT P6SM FEW035 SCT060 BKN250
FM040600 36002KT P6SM VCSH FEW030 BKN060 BKN250
KZHU FIR / North America



MET'MAP, your aeronautical weather chart ! - Copyright ORBIFLY December 2007 - Disclaimer

ORBIFLY MET'MAP TEAM :

Programming & Development : Alexandra Zaïnal
Concept & original design : Baudouin d'Aumeries
Assistance for programming : Marc-Olivier Méhu
Technical & hardware support : Manuel Goepfert

Contact : metmap@orbifly.com




SOURCES & CREDITS :

   NOAA       Earth
Advisory